createdAt,value
2022-12-26T00:00:12.227Z,47.38
2022-12-26T00:03:00.808Z,47.95
2022-12-26T00:05:55.128Z,46.50
2022-12-26T00:09:10.753Z,50.33
2022-12-26T00:11:19.452Z,41.92
2022-12-26T00:13:57.690Z,46.08
2022-12-26T00:16:35.455Z,47.03
2022-12-26T00:19:09.798Z,50.45
2022-12-26T00:21:39.976Z,53.13
2022-12-26T00:24:16.409Z,48.85
2022-12-26T00:26:58.957Z,43.38
2022-12-26T00:33:53.256Z,51.17
2022-12-26T00:36:27.634Z,46.10
2022-12-26T00:39:30.748Z,41.78
2022-12-26T00:42:00.630Z,49.03
2022-12-26T00:44:46.760Z,42.00
2022-12-26T00:47:23.873Z,45.35
2022-12-26T00:50:13.053Z,46.83
2022-12-26T00:53:09.008Z,43.80
2022-12-26T00:55:42.187Z,43.88
2022-12-26T00:58:15.578Z,46.03
2022-12-26T01:00:44.165Z,45.75
2022-12-26T01:03:15.788Z,45.85
2022-12-26T01:05:49.551Z,45.67
2022-12-26T01:08:24.991Z,44.15
2022-12-26T01:10:53.895Z,48.05
2022-12-26T01:13:52.037Z,43.88
2022-12-26T01:16:41.905Z,49.95
2022-12-26T01:19:12.179Z,43.58
2022-12-26T01:21:43.766Z,47.22
2022-12-26T01:24:19.698Z,45.67
2022-12-26T01:26:48.287Z,46.72
2022-12-26T01:29:20.331Z,47.30
2022-12-26T01:31:48.988Z,45.17
2022-12-26T01:36:03.507Z,39.53
2022-12-26T01:42:38.625Z,42.03
2022-12-26T01:47:09.580Z,41.13
2022-12-26T01:49:59.808Z,41.80
2022-12-26T01:52:43.816Z,41.65
2022-12-26T01:59:40.620Z,42.03
2022-12-26T02:04:44.405Z,38.05
2022-12-26T02:07:36.581Z,41.65
2022-12-26T02:10:21.866Z,39.72
2022-12-26T02:13:08.034Z,39.88
2022-12-26T02:15:42.229Z,39.13
2022-12-26T02:18:15.369Z,36.33
2022-12-26T02:21:35.573Z,36.72
2022-12-26T02:25:05.936Z,37.55
2022-12-26T02:28:15.632Z,37.60
2022-12-26T02:31:41.338Z,33.97
2022-12-26T02:34:36.457Z,34.92
2022-12-26T02:37:54.764Z,33.75
2022-12-26T02:41:00.262Z,35.42
2022-12-26T02:44:29.536Z,33.58
2022-12-26T02:48:05.246Z,30.50
2022-12-26T02:51:39.630Z,34.60
2022-12-26T02:55:27.635Z,30.02
2022-12-26T02:59:02.698Z,37.13
2022-12-26T03:02:46.204Z,29.20
2022-12-26T03:09:56.855Z,30.60
2022-12-26T03:13:48.449Z,30.00
2022-12-26T03:16:40.641Z,29.65
2022-12-26T03:19:42.754Z,28.17
2022-12-26T03:30:54.892Z,29.88
2022-12-26T03:35:05.214Z,34.20
2022-12-26T03:38:32.830Z,33.50
2022-12-26T03:42:11.502Z,39.35
2022-12-26T03:45:56.952Z,38.95
2022-12-26T03:51:09.734Z,41.60
2022-12-26T03:57:54.591Z,41.35
2022-12-26T04:01:22.618Z,44.38
2022-12-26T04:05:23.046Z,45.33
2022-12-26T04:13:57.038Z,44.63
2022-12-26T04:21:44.522Z,43.37
2022-12-26T04:33:37.324Z,51.85
2022-12-26T04:53:46.628Z,53.67
2022-12-26T04:57:06.084Z,52.30
2022-12-26T04:59:59.836Z,49.65
2022-12-26T05:26:07.532Z,44.58
2022-12-26T05:29:10.387Z,42.58
2022-12-26T05:32:57.755Z,39.63
2022-12-26T05:48:17.800Z,38.63
2022-12-26T06:34:13.349Z,37.53
2022-12-26T06:41:04.311Z,35.15
2022-12-26T06:44:19.055Z,32.47
2022-12-26T06:47:30.975Z,35.25
2022-12-26T06:50:55.776Z,32.38
2022-12-26T06:54:29.366Z,30.55
2022-12-26T07:01:31.525Z,27.77
2022-12-26T07:04:59.675Z,27.10
2022-12-26T08:12:54.815Z,20.20
2022-12-26T08:42:44.668Z,16.75
2022-12-26T08:47:11.271Z,17.73
2022-12-26T08:50:30.426Z,15.65
2022-12-26T08:52:58.770Z,16.08
2022-12-26T08:55:27.393Z,13.85
2022-12-26T08:58:02.602Z,16.80
2022-12-26T09:00:31.362Z,17.60
2022-12-26T09:02:59.903Z,14.95
2022-12-26T09:05:38.288Z,15.70
2022-12-26T09:08:12.865Z,14.43
2022-12-26T09:10:41.569Z,14.35
2022-12-26T09:16:34.096Z,13.20
2022-12-26T09:19:23.256Z,15.10
2022-12-26T09:22:16.007Z,14.18
2022-12-26T09:24:44.500Z,15.20
2022-12-26T09:27:14.434Z,13.90
2022-12-26T09:29:42.921Z,12.15
2022-12-26T09:32:11.553Z,10.15
2022-12-26T09:34:40.007Z,10.98
2022-12-26T09:37:12.819Z,11.07
2022-12-26T09:39:41.193Z,13.85
2022-12-26T09:42:28.450Z,11.50
2022-12-26T09:45:16.542Z,10.98
2022-12-26T09:48:03.388Z,12.27
2022-12-26T09:50:41.008Z,8.75
2022-12-26T09:53:40.044Z,12.05
2022-12-26T09:57:01.319Z,9.23
2022-12-26T09:59:16.999Z,9.45
2022-12-26T10:01:50.857Z,10.80
2022-12-26T10:04:29.928Z,9.48
2022-12-26T10:07:18.239Z,9.75
2022-12-26T10:14:37.539Z,9.35
2022-12-26T10:17:34.075Z,10.65
2022-12-26T10:20:28.771Z,8.90
2022-12-26T10:23:09.670Z,7.43
2022-12-26T10:26:22.569Z,8.18
2022-12-26T10:29:12.174Z,7.72
2022-12-26T10:32:10.845Z,7.45
2022-12-26T10:35:37.640Z,7.82
2022-12-26T10:38:44.309Z,7.70
2022-12-26T10:41:26.642Z,6.15
2022-12-26T10:43:56.591Z,8.18
2022-12-26T10:46:52.451Z,8.80
2022-12-26T10:49:24.743Z,11.93
2022-12-26T10:51:57.019Z,9.25
2022-12-26T10:54:33.106Z,11.02
2022-12-26T10:57:13.533Z,7.57
2022-12-26T11:00:05.919Z,6.68
2022-12-26T11:03:33.457Z,8.82
2022-12-26T11:06:08.481Z,6.38
2022-12-26T11:08:53.570Z,6.95
2022-12-26T11:11:48.149Z,6.00
2022-12-26T11:14:45.103Z,5.55
2022-12-26T11:17:29.520Z,8.68
2022-12-26T11:20:16.712Z,5.45
2022-12-26T11:22:47.567Z,5.85
2022-12-26T11:25:51.785Z,8.18
2022-12-26T11:29:08.669Z,6.20
2022-12-26T11:32:31.305Z,4.93
2022-12-26T11:35:34.246Z,5.93
2022-12-26T11:38:44.014Z,6.65
2022-12-26T11:41:38.205Z,6.10
2022-12-26T11:44:24.976Z,6.57
2022-12-26T11:47:12.270Z,6.65
2022-12-26T11:50:01.307Z,8.77
2022-12-26T11:53:00.675Z,10.43
2022-12-26T11:56:14.413Z,8.98
2022-12-26T11:58:45.752Z,6.05
2022-12-26T12:02:58.099Z,6.85
2022-12-26T12:04:28.181Z,6.50
2022-12-26T12:07:37.309Z,6.18
2022-12-26T12:14:22.691Z,7.45
2022-12-26T12:22:44.230Z,6.47
2022-12-26T12:24:25.156Z,7.40
2022-12-26T12:25:39.691Z,5.82
2022-12-26T12:39:39.422Z,9.27
2022-12-26T12:47:33.486Z,7.07
2022-12-26T12:50:32.722Z,6.15
2022-12-26T12:57:57.829Z,6.53
2022-12-26T13:01:34.875Z,6.82
2022-12-26T13:05:03.228Z,5.32
2022-12-26T13:08:10.391Z,8.40
2022-12-26T13:10:53.776Z,6.82
2022-12-26T13:15:07.612Z,11.07
2022-12-26T13:17:57.972Z,6.55
2022-12-26T13:21:57.098Z,6.82
2022-12-26T13:32:49.192Z,17.65
2022-12-26T13:35:56.496Z,9.07
2022-12-26T13:39:15.387Z,8.45
2022-12-26T13:42:27.323Z,8.13
2022-12-26T13:45:11.588Z,7.03
2022-12-26T13:47:40.037Z,7.47
2022-12-26T13:50:51.720Z,8.30
2022-12-26T13:53:38.442Z,10.35
2022-12-26T13:59:36.002Z,7.05
2022-12-26T14:03:15.463Z,7.00
2022-12-26T14:05:52.734Z,6.68
2022-12-26T14:08:40.652Z,5.53
2022-12-26T14:11:18.453Z,7.22
2022-12-26T14:14:17.341Z,7.40
2022-12-26T14:17:18.592Z,6.40
2022-12-26T14:20:45.474Z,6.28
2022-12-26T14:23:48.843Z,8.52
2022-12-26T14:26:41.063Z,9.48
2022-12-26T14:29:48.693Z,9.13
2022-12-26T14:32:37.545Z,7.25
2022-12-26T14:35:57.542Z,10.07
2022-12-26T14:38:35.700Z,8.32
2022-12-26T14:41:30.439Z,8.75
2022-12-26T14:44:20.008Z,7.82
2022-12-26T14:46:55.617Z,6.15
2022-12-26T14:49:41.654Z,6.05
2022-12-26T14:52:49.959Z,7.82
2022-12-26T14:56:25.124Z,11.30
2022-12-26T14:59:49.053Z,6.30
2022-12-26T15:02:42.568Z,8.50
2022-12-26T15:05:57.837Z,15.63
2022-12-26T15:08:59.261Z,9.48
2022-12-26T15:12:09.366Z,12.43
2022-12-26T15:15:45.841Z,7.97
2022-12-26T15:18:52.079Z,11.27
2022-12-26T15:21:52.619Z,10.80
2022-12-26T15:25:18.872Z,11.57
2022-12-26T15:28:18.381Z,10.70
2022-12-26T15:31:11.530Z,8.45
2022-12-26T15:34:43.599Z,10.93
2022-12-26T15:37:17.831Z,12.43
2022-12-26T15:43:34.425Z,8.98
2022-12-26T15:46:36.807Z,9.48
2022-12-26T15:49:32.458Z,10.23
2022-12-26T15:52:51.620Z,9.13
2022-12-26T15:55:47.704Z,9.57
2022-12-26T15:58:46.586Z,15.30
2022-12-26T16:01:48.889Z,14.23
2022-12-26T16:04:51.059Z,13.45
2022-12-26T16:07:53.723Z,13.30
2022-12-26T16:10:51.190Z,21.27
2022-12-26T16:13:29.995Z,20.05
2022-12-26T16:16:30.181Z,21.15
2022-12-26T16:19:31.437Z,18.83
2022-12-26T16:22:51.747Z,12.20
2022-12-26T16:25:28.810Z,11.98
2022-12-26T16:31:31.371Z,7.40
2022-12-26T16:34:01.241Z,8.15
2022-12-26T16:36:41.975Z,6.95
2022-12-26T16:39:23.466Z,8.20
2022-12-26T16:42:08.940Z,9.02
2022-12-26T16:44:41.503Z,9.07
2022-12-26T16:47:15.504Z,7.85
2022-12-26T16:49:53.005Z,9.80
2022-12-26T16:52:45.944Z,6.90
2022-12-26T16:55:42.099Z,5.63
2022-12-26T16:58:27.601Z,8.45
2022-12-26T17:01:07.527Z,2.85
2022-12-26T17:03:50.213Z,4.60
2022-12-26T17:06:35.676Z,3.58
2022-12-26T17:09:16.913Z,6.93
2022-12-26T17:12:00.694Z,3.60
2022-12-26T17:14:40.446Z,5.35
2022-12-26T17:17:35.583Z,5.03
2022-12-26T17:20:23.775Z,6.60
2022-12-26T17:23:06.145Z,11.43
2022-12-26T17:29:43.776Z,7.32
2022-12-26T17:32:44.003Z,10.02
2022-12-26T17:35:24.153Z,13.00
2022-12-26T17:38:04.513Z,23.08
2022-12-26T17:40:48.346Z,11.00
2022-12-26T17:52:26.314Z,8.75
2022-12-26T17:55:31.855Z,7.78
2022-12-26T17:58:15.263Z,6.70
2022-12-26T18:00:50.480Z,5.72
2022-12-26T18:03:22.776Z,6.40
2022-12-26T18:06:16.698Z,4.30
2022-12-26T18:10:06.822Z,11.68
2022-12-26T18:13:10.895Z,8.30
2022-12-26T18:15:47.228Z,7.82
2022-12-26T18:19:08.965Z,7.88
2022-12-26T18:25:00.284Z,6.18
2022-12-26T19:14:54.555Z,6.53
2022-12-26T19:59:18.167Z,8.85
2022-12-26T20:10:17.078Z,7.85
2022-12-26T20:18:27.876Z,9.38
2022-12-26T20:24:29.468Z,10.38
2022-12-26T20:32:11.012Z,8.32
2022-12-26T20:39:16.322Z,8.73
2022-12-26T20:50:07.126Z,8.52
2022-12-26T21:17:26.138Z,4.82
2022-12-26T21:20:44.945Z,7.18
2022-12-26T21:23:51.379Z,5.07
2022-12-26T21:27:34.902Z,9.60
2022-12-26T21:30:56.577Z,6.57
2022-12-26T21:42:01.737Z,6.47
2022-12-26T21:45:27.146Z,8.43
2022-12-26T21:47:58.832Z,5.43
2022-12-26T21:50:56.439Z,8.10
2022-12-26T21:53:38.945Z,10.77
2022-12-26T21:56:25.012Z,11.18
2022-12-26T21:59:27.413Z,11.77
2022-12-26T22:01:55.960Z,7.78
2022-12-26T22:04:27.054Z,8.48
2022-12-26T22:10:05.290Z,10.75
2022-12-26T22:12:56.949Z,10.48
2022-12-26T22:15:44.423Z,9.80
2022-12-26T22:18:12.862Z,9.52
2022-12-26T22:20:54.773Z,8.57
2022-12-26T22:23:23.044Z,8.05
2022-12-26T22:26:00.162Z,5.30
2022-12-26T22:28:36.119Z,8.35
2022-12-26T22:31:05.613Z,6.70
2022-12-26T22:33:37.967Z,7.47
2022-12-26T22:36:14.163Z,6.22
2022-12-26T22:38:42.589Z,8.25
2022-12-26T22:41:11.428Z,6.22
2022-12-26T22:43:40.831Z,7.47
2022-12-26T22:46:10.279Z,7.10
2022-12-26T22:48:41.967Z,5.85
2022-12-26T22:53:45.797Z,9.55
2022-12-26T22:56:16.047Z,8.00
2022-12-26T22:58:47.168Z,3.60
2022-12-26T23:01:27.000Z,9.80
2022-12-26T23:04:01.816Z,5.88
2022-12-26T23:07:03.336Z,7.78
2022-12-26T23:09:40.968Z,6.05
2022-12-26T23:12:32.643Z,2.95
2022-12-26T23:18:57.220Z,2.45
2022-12-26T23:21:50.675Z,1.88
2022-12-26T23:24:30.570Z,2.17
2022-12-26T23:27:27.076Z,3.05
2022-12-26T23:31:18.074Z,2.15
2022-12-26T23:33:25.907Z,5.63
2022-12-26T23:36:02.982Z,5.78
2022-12-26T23:38:33.813Z,7.25
2022-12-26T23:41:19.588Z,5.13
2022-12-26T23:43:48.268Z,3.30
2022-12-26T23:46:17.111Z,2.17
2022-12-26T23:48:48.392Z,3.97
2022-12-26T23:51:29.963Z,6.85
2022-12-26T23:54:04.109Z,8.68
2022-12-26T23:56:37.327Z,6.88
2022-12-26T23:59:07.447Z,6.03
